sensor_id;sensor_type;location;lat;lon;timestamp;P1;durP1;ratioP1;P2;durP2;ratioP2
78610;SDS011;67932;50.474;4.436;2023-04-24T00:01:53;11.50;;;6.50;;
78610;SDS011;67932;50.474;4.436;2023-04-24T00:04:20;12.52;;;6.68;;
78610;SDS011;67932;50.474;4.436;2023-04-24T00:06:46;16.88;;;6.80;;
78610;SDS011;67932;50.474;4.436;2023-04-24T00:09:17;17.27;;;7.85;;
78610;SDS011;67932;50.474;4.436;2023-04-24T00:11:43;14.18;;;6.88;;
78610;SDS011;67932;50.474;4.436;2023-04-24T00:14:09;13.05;;;6.28;;
78610;SDS011;67932;50.474;4.436;2023-04-24T00:16:35;13.40;;;6.07;;
78610;SDS011;67932;50.474;4.436;2023-04-24T00:19:01;14.88;;;7.40;;
78610;SDS011;67932;50.474;4.436;2023-04-24T00:21:27;13.10;;;6.45;;
78610;SDS011;67932;50.474;4.436;2023-04-24T00:23:55;16.50;;;6.38;;
78610;SDS011;67932;50.474;4.436;2023-04-24T00:26:21;14.77;;;6.80;;
78610;SDS011;67932;50.474;4.436;2023-04-24T00:28:48;17.95;;;7.03;;
78610;SDS011;67932;50.474;4.436;2023-04-24T00:31:14;11.32;;;7.25;;
78610;SDS011;67932;50.474;4.436;2023-04-24T00:33:40;12.98;;;7.03;;
78610;SDS011;67932;50.474;4.436;2023-04-24T00:36:06;12.07;;;6.55;;
78610;SDS011;67932;50.474;4.436;2023-04-24T00:38:32;14.65;;;7.35;;
78610;SDS011;67932;50.474;4.436;2023-04-24T00:40:59;12.80;;;6.28;;
78610;SDS011;67932;50.474;4.436;2023-04-24T00:43:25;14.30;;;6.53;;
78610;SDS011;67932;50.474;4.436;2023-04-24T00:45:51;13.23;;;6.15;;
78610;SDS011;67932;50.474;4.436;2023-04-24T00:48:17;15.38;;;7.18;;
78610;SDS011;67932;50.474;4.436;2023-04-24T00:50:43;14.63;;;6.82;;
78610;SDS011;67932;50.474;4.436;2023-04-24T00:53:10;12.93;;;6.30;;
78610;SDS011;67932;50.474;4.436;2023-04-24T00:55:36;13.02;;;6.90;;
78610;SDS011;67932;50.474;4.436;2023-04-24T00:58:02;10.52;;;6.50;;
78610;SDS011;67932;50.474;4.436;2023-04-24T01:00:28;16.02;;;6.97;;
78610;SDS011;67932;50.474;4.436;2023-04-24T01:02:55;16.52;;;6.85;;
78610;SDS011;67932;50.474;4.436;2023-04-24T01:05:21;13.45;;;7.25;;
78610;SDS011;67932;50.474;4.436;2023-04-24T01:07:47;15.88;;;7.68;;
78610;SDS011;67932;50.474;4.436;2023-04-24T01:10:14;16.60;;;7.35;;
78610;SDS011;67932;50.474;4.436;2023-04-24T01:12:42;15.98;;;6.72;;
78610;SDS011;67932;50.474;4.436;2023-04-24T01:15:08;12.38;;;6.32;;
78610;SDS011;67932;50.474;4.436;2023-04-24T01:17:34;14.73;;;7.18;;
78610;SDS011;67932;50.474;4.436;2023-04-24T01:20:01;14.05;;;6.55;;
78610;SDS011;67932;50.474;4.436;2023-04-24T01:22:30;14.40;;;7.20;;
78610;SDS011;67932;50.474;4.436;2023-04-24T01:24:56;16.35;;;7.38;;
78610;SDS011;67932;50.474;4.436;2023-04-24T01:27:23;14.07;;;6.85;;
78610;SDS011;67932;50.474;4.436;2023-04-24T01:29:49;15.95;;;7.78;;
78610;SDS011;67932;50.474;4.436;2023-04-24T01:32:17;14.15;;;7.00;;
78610;SDS011;67932;50.474;4.436;2023-04-24T01:34:43;15.05;;;7.95;;
78610;SDS011;67932;50.474;4.436;2023-04-24T01:37:10;16.35;;;7.72;;
78610;SDS011;67932;50.474;4.436;2023-04-24T01:39:36;17.05;;;7.70;;
78610;SDS011;67932;50.474;4.436;2023-04-24T01:42:02;18.50;;;8.50;;
78610;SDS011;67932;50.474;4.436;2023-04-24T01:44:28;16.42;;;7.60;;
78610;SDS011;67932;50.474;4.436;2023-04-24T01:46:54;17.55;;;7.35;;
78610;SDS011;67932;50.474;4.436;2023-04-24T01:49:20;16.08;;;7.50;;
78610;SDS011;67932;50.474;4.436;2023-04-24T01:51:47;16.60;;;7.32;;
78610;SDS011;67932;50.474;4.436;2023-04-24T01:54:13;13.38;;;6.65;;
78610;SDS011;67932;50.474;4.436;2023-04-24T01:56:40;17.38;;;8.48;;
78610;SDS011;67932;50.474;4.436;2023-04-24T01:59:07;18.80;;;7.55;;
78610;SDS011;67932;50.474;4.436;2023-04-24T02:01:35;18.00;;;7.80;;
78610;SDS011;67932;50.474;4.436;2023-04-24T02:04:05;17.35;;;7.53;;
78610;SDS011;67932;50.474;4.436;2023-04-24T02:06:32;15.15;;;7.63;;
78610;SDS011;67932;50.474;4.436;2023-04-24T02:08:58;15.10;;;7.40;;
78610;SDS011;67932;50.474;4.436;2023-04-24T02:11:25;13.10;;;7.00;;
78610;SDS011;67932;50.474;4.436;2023-04-24T02:13:51;14.13;;;8.18;;
78610;SDS011;67932;50.474;4.436;2023-04-24T02:16:17;14.30;;;6.85;;
78610;SDS011;67932;50.474;4.436;2023-04-24T02:18:43;14.63;;;6.35;;
78610;SDS011;67932;50.474;4.436;2023-04-24T02:21:10;15.35;;;7.72;;
78610;SDS011;67932;50.474;4.436;2023-04-24T02:23:36;16.35;;;7.22;;
78610;SDS011;67932;50.474;4.436;2023-04-24T02:26:02;17.80;;;6.85;;
78610;SDS011;67932;50.474;4.436;2023-04-24T02:28:28;13.20;;;6.65;;
78610;SDS011;67932;50.474;4.436;2023-04-24T02:30:54;14.38;;;7.45;;
78610;SDS011;67932;50.474;4.436;2023-04-24T02:33:20;12.82;;;6.50;;
78610;SDS011;67932;50.474;4.436;2023-04-24T02:35:46;14.38;;;7.90;;
78610;SDS011;67932;50.474;4.436;2023-04-24T02:38:12;15.48;;;7.15;;
78610;SDS011;67932;50.474;4.436;2023-04-24T02:40:38;13.75;;;6.35;;
78610;SDS011;67932;50.474;4.436;2023-04-24T02:43:04;12.25;;;6.07;;
78610;SDS011;67932;50.474;4.436;2023-04-24T02:45:30;16.63;;;7.65;;
78610;SDS011;67932;50.474;4.436;2023-04-24T02:47:59;14.45;;;7.43;;
78610;SDS011;67932;50.474;4.436;2023-04-24T02:50:25;13.60;;;6.28;;
78610;SDS011;67932;50.474;4.436;2023-04-24T02:52:51;17.92;;;7.22;;
78610;SDS011;67932;50.474;4.436;2023-04-24T02:55:17;15.48;;;6.70;;
78610;SDS011;67932;50.474;4.436;2023-04-24T02:57:43;19.55;;;7.78;;
78610;SDS011;67932;50.474;4.436;2023-04-24T03:00:09;18.00;;;8.63;;
78610;SDS011;67932;50.474;4.436;2023-04-24T03:02:36;19.10;;;8.48;;
78610;SDS011;67932;50.474;4.436;2023-04-24T03:05:02;19.02;;;8.65;;
78610;SDS011;67932;50.474;4.436;2023-04-24T03:07:29;18.58;;;8.68;;
78610;SDS011;67932;50.474;4.436;2023-04-24T03:09:56;19.23;;;8.52;;
78610;SDS011;67932;50.474;4.436;2023-04-24T03:12:23;16.73;;;7.90;;
78610;SDS011;67932;50.474;4.436;2023-04-24T03:14:49;19.30;;;8.02;;
78610;SDS011;67932;50.474;4.436;2023-04-24T03:17:15;18.67;;;8.85;;
78610;SDS011;67932;50.474;4.436;2023-04-24T03:19:41;17.40;;;8.52;;
78610;SDS011;67932;50.474;4.436;2023-04-24T03:22:07;19.42;;;8.88;;
78610;SDS011;67932;50.474;4.436;2023-04-24T03:24:34;17.38;;;8.20;;
78610;SDS011;67932;50.474;4.436;2023-04-24T03:27:00;19.15;;;8.82;;
78610;SDS011;67932;50.474;4.436;2023-04-24T03:29:26;21.67;;;9.00;;
78610;SDS011;67932;50.474;4.436;2023-04-24T03:31:52;17.27;;;8.32;;
78610;SDS011;67932;50.474;4.436;2023-04-24T03:34:18;17.27;;;7.82;;
78610;SDS011;67932;50.474;4.436;2023-04-24T03:36:44;19.30;;;8.23;;
78610;SDS011;67932;50.474;4.436;2023-04-24T03:39:12;16.35;;;7.18;;
78610;SDS011;67932;50.474;4.436;2023-04-24T03:41:38;17.63;;;9.43;;
78610;SDS011;67932;50.474;4.436;2023-04-24T03:44:05;18.65;;;8.10;;
78610;SDS011;67932;50.474;4.436;2023-04-24T03:46:31;14.82;;;8.32;;
78610;SDS011;67932;50.474;4.436;2023-04-24T03:48:57;16.75;;;7.47;;
78610;SDS011;67932;50.474;4.436;2023-04-24T03:51:23;19.02;;;8.27;;
78610;SDS011;67932;50.474;4.436;2023-04-24T03:53:49;14.70;;;7.68;;
78610;SDS011;67932;50.474;4.436;2023-04-24T03:56:15;17.58;;;7.95;;
78610;SDS011;67932;50.474;4.436;2023-04-24T03:58:41;16.15;;;6.90;;
78610;SDS011;67932;50.474;4.436;2023-04-24T04:01:07;18.38;;;8.15;;
78610;SDS011;67932;50.474;4.436;2023-04-24T04:03:33;13.45;;;6.88;;
78610;SDS011;67932;50.474;4.436;2023-04-24T04:05:59;18.75;;;8.10;;
78610;SDS011;67932;50.474;4.436;2023-04-24T04:08:25;14.93;;;7.13;;
78610;SDS011;67932;50.474;4.436;2023-04-24T04:10:52;17.10;;;7.13;;
78610;SDS011;67932;50.474;4.436;2023-04-24T04:13:18;19.65;;;8.00;;
78610;SDS011;67932;50.474;4.436;2023-04-24T04:15:44;23.02;;;8.65;;
78610;SDS011;67932;50.474;4.436;2023-04-24T04:18:10;16.40;;;8.27;;
78610;SDS011;67932;50.474;4.436;2023-04-24T04:20:36;17.38;;;8.23;;
78610;SDS011;67932;50.474;4.436;2023-04-24T04:23:02;16.50;;;7.95;;
78610;SDS011;67932;50.474;4.436;2023-04-24T04:25:28;18.02;;;9.20;;
78610;SDS011;67932;50.474;4.436;2023-04-24T04:27:54;18.83;;;8.50;;
78610;SDS011;67932;50.474;4.436;2023-04-24T04:30:23;19.25;;;8.05;;
78610;SDS011;67932;50.474;4.436;2023-04-24T04:32:49;23.35;;;8.80;;
78610;SDS011;67932;50.474;4.436;2023-04-24T04:35:15;23.50;;;10.10;;
78610;SDS011;67932;50.474;4.436;2023-04-24T04:37:41;21.50;;;9.23;;
78610;SDS011;67932;50.474;4.436;2023-04-24T04:40:07;21.98;;;9.63;;
78610;SDS011;67932;50.474;4.436;2023-04-24T04:42:36;24.80;;;10.43;;
78610;SDS011;67932;50.474;4.436;2023-04-24T04:45:05;22.15;;;9.70;;
78610;SDS011;67932;50.474;4.436;2023-04-24T04:47:34;27.33;;;10.98;;
78610;SDS011;67932;50.474;4.436;2023-04-24T04:50:00;24.63;;;10.00;;
78610;SDS011;67932;50.474;4.436;2023-04-24T04:52:26;19.08;;;10.48;;
78610;SDS011;67932;50.474;4.436;2023-04-24T04:54:52;22.98;;;10.35;;
78610;SDS011;67932;50.474;4.436;2023-04-24T04:57:18;25.33;;;10.88;;
78610;SDS011;67932;50.474;4.436;2023-04-24T04:59:45;27.35;;;12.38;;
78610;SDS011;67932;50.474;4.436;2023-04-24T05:02:11;25.45;;;10.95;;
78610;SDS011;67932;50.474;4.436;2023-04-24T05:04:37;18.90;;;9.05;;
78610;SDS011;67932;50.474;4.436;2023-04-24T05:07:03;18.08;;;8.48;;
78610;SDS011;67932;50.474;4.436;2023-04-24T05:09:30;16.42;;;6.90;;
78610;SDS011;67932;50.474;4.436;2023-04-24T05:11:56;15.85;;;7.55;;
78610;SDS011;67932;50.474;4.436;2023-04-24T05:14:22;14.57;;;7.22;;
78610;SDS011;67932;50.474;4.436;2023-04-24T05:16:48;15.45;;;7.53;;
78610;SDS011;67932;50.474;4.436;2023-04-24T05:19:14;16.30;;;7.93;;
78610;SDS011;67932;50.474;4.436;2023-04-24T05:21:41;15.43;;;7.78;;
78610;SDS011;67932;50.474;4.436;2023-04-24T05:24:07;17.85;;;8.15;;
78610;SDS011;67932;50.474;4.436;2023-04-24T05:26:33;16.85;;;7.65;;
78610;SDS011;67932;50.474;4.436;2023-04-24T05:29:00;20.25;;;9.85;;
78610;SDS011;67932;50.474;4.436;2023-04-24T05:31:27;16.60;;;8.20;;
78610;SDS011;67932;50.474;4.436;2023-04-24T05:33:53;17.95;;;9.30;;
78610;SDS011;67932;50.474;4.436;2023-04-24T05:36:19;22.10;;;10.93;;
78610;SDS011;67932;50.474;4.436;2023-04-24T05:38:45;23.30;;;9.43;;
78610;SDS011;67932;50.474;4.436;2023-04-24T05:41:11;23.50;;;9.68;;
78610;SDS011;67932;50.474;4.436;2023-04-24T05:43:38;22.30;;;11.00;;
78610;SDS011;67932;50.474;4.436;2023-04-24T05:46:05;21.17;;;10.90;;
78610;SDS011;67932;50.474;4.436;2023-04-24T05:48:31;18.55;;;9.68;;
78610;SDS011;67932;50.474;4.436;2023-04-24T05:50:57;21.17;;;9.93;;
78610;SDS011;67932;50.474;4.436;2023-04-24T05:53:23;22.45;;;10.27;;
78610;SDS011;67932;50.474;4.436;2023-04-24T05:55:50;24.10;;;11.48;;
78610;SDS011;67932;50.474;4.436;2023-04-24T05:58:16;26.85;;;10.80;;
78610;SDS011;67932;50.474;4.436;2023-04-24T06:00:42;23.17;;;11.32;;
78610;SDS011;67932;50.474;4.436;2023-04-24T06:03:09;19.95;;;12.25;;
78610;SDS011;67932;50.474;4.436;2023-04-24T06:05:35;22.75;;;10.80;;
78610;SDS011;67932;50.474;4.436;2023-04-24T06:08:01;23.77;;;10.93;;
78610;SDS011;67932;50.474;4.436;2023-04-24T06:10:27;20.98;;;10.43;;
78610;SDS011;67932;50.474;4.436;2023-04-24T06:12:53;20.33;;;9.75;;
78610;SDS011;67932;50.474;4.436;2023-04-24T06:15:25;21.75;;;10.57;;
78610;SDS011;67932;50.474;4.436;2023-04-24T06:17:51;22.20;;;9.60;;
78610;SDS011;67932;50.474;4.436;2023-04-24T06:20:17;25.45;;;12.00;;
78610;SDS011;67932;50.474;4.436;2023-04-24T06:22:43;26.23;;;11.23;;
78610;SDS011;67932;50.474;4.436;2023-04-24T06:25:09;23.50;;;11.35;;
78610;SDS011;67932;50.474;4.436;2023-04-24T06:27:35;24.38;;;12.15;;
78610;SDS011;67932;50.474;4.436;2023-04-24T06:30:01;29.33;;;12.40;;
78610;SDS011;67932;50.474;4.436;2023-04-24T06:32:28;27.35;;;14.05;;
78610;SDS011;67932;50.474;4.436;2023-04-24T06:34:55;33.72;;;16.65;;
78610;SDS011;67932;50.474;4.436;2023-04-24T06:37:21;35.05;;;18.17;;
78610;SDS011;67932;50.474;4.436;2023-04-24T06:39:47;33.40;;;14.93;;
78610;SDS011;67932;50.474;4.436;2023-04-24T06:42:14;36.85;;;17.15;;
78610;SDS011;67932;50.474;4.436;2023-04-24T06:44:40;34.35;;;15.27;;
78610;SDS011;67932;50.474;4.436;2023-04-24T06:47:09;39.42;;;16.08;;
78610;SDS011;67932;50.474;4.436;2023-04-24T06:49:37;33.03;;;14.27;;
78610;SDS011;67932;50.474;4.436;2023-04-24T06:52:03;33.78;;;15.90;;
78610;SDS011;67932;50.474;4.436;2023-04-24T06:54:30;30.77;;;13.30;;
78610;SDS011;67932;50.474;4.436;2023-04-24T06:56:56;31.77;;;14.80;;
78610;SDS011;67932;50.474;4.436;2023-04-24T06:59:23;27.90;;;14.35;;
78610;SDS011;67932;50.474;4.436;2023-04-24T07:01:49;28.63;;;14.02;;
78610;SDS011;67932;50.474;4.436;2023-04-24T07:04:16;27.23;;;13.00;;
78610;SDS011;67932;50.474;4.436;2023-04-24T07:06:43;27.30;;;13.77;;
78610;SDS011;67932;50.474;4.436;2023-04-24T07:09:11;31.80;;;14.40;;
78610;SDS011;67932;50.474;4.436;2023-04-24T07:11:38;29.55;;;15.32;;
78610;SDS011;67932;50.474;4.436;2023-04-24T07:14:05;33.40;;;14.93;;
78610;SDS011;67932;50.474;4.436;2023-04-24T07:16:32;30.27;;;14.60;;
78610;SDS011;67932;50.474;4.436;2023-04-24T07:18:58;29.55;;;14.15;;
78610;SDS011;67932;50.474;4.436;2023-04-24T07:21:25;28.95;;;13.18;;
78610;SDS011;67932;50.474;4.436;2023-04-24T07:23:52;33.25;;;15.77;;
78610;SDS011;67932;50.474;4.436;2023-04-24T07:26:18;33.28;;;15.98;;
78610;SDS011;67932;50.474;4.436;2023-04-24T07:28:44;28.00;;;13.15;;
78610;SDS011;67932;50.474;4.436;2023-04-24T07:31:10;29.13;;;15.18;;
78610;SDS011;67932;50.474;4.436;2023-04-24T07:33:36;35.25;;;16.10;;
78610;SDS011;67932;50.474;4.436;2023-04-24T07:36:03;30.27;;;14.95;;
78610;SDS011;67932;50.474;4.436;2023-04-24T07:38:30;35.13;;;14.15;;
78610;SDS011;67932;50.474;4.436;2023-04-24T07:40:56;22.23;;;11.38;;
78610;SDS011;67932;50.474;4.436;2023-04-24T07:43:25;23.73;;;11.57;;
78610;SDS011;67932;50.474;4.436;2023-04-24T07:45:51;24.38;;;12.57;;
78610;SDS011;67932;50.474;4.436;2023-04-24T07:48:18;23.05;;;12.18;;
78610;SDS011;67932;50.474;4.436;2023-04-24T07:50:46;22.02;;;11.25;;
78610;SDS011;67932;50.474;4.436;2023-04-24T07:53:12;28.27;;;12.57;;
78610;SDS011;67932;50.474;4.436;2023-04-24T07:55:38;26.88;;;12.75;;
78610;SDS011;67932;50.474;4.436;2023-04-24T07:58:04;25.73;;;14.45;;
78610;SDS011;67932;50.474;4.436;2023-04-24T08:00:30;23.92;;;11.25;;
78610;SDS011;67932;50.474;4.436;2023-04-24T08:02:56;28.80;;;13.25;;
78610;SDS011;67932;50.474;4.436;2023-04-24T08:05:23;19.42;;;11.23;;
78610;SDS011;67932;50.474;4.436;2023-04-24T08:07:50;26.95;;;11.45;;
78610;SDS011;67932;50.474;4.436;2023-04-24T08:10:16;22.15;;;11.45;;
78610;SDS011;67932;50.474;4.436;2023-04-24T08:12:42;24.15;;;11.07;;
78610;SDS011;67932;50.474;4.436;2023-04-24T08:15:08;23.70;;;11.68;;
78610;SDS011;67932;50.474;4.436;2023-04-24T08:17:35;23.60;;;11.32;;
78610;SDS011;67932;50.474;4.436;2023-04-24T08:20:02;23.83;;;10.75;;
78610;SDS011;67932;50.474;4.436;2023-04-24T08:22:30;19.33;;;9.63;;
78610;SDS011;67932;50.474;4.436;2023-04-24T08:24:56;19.27;;;9.90;;
78610;SDS011;67932;50.474;4.436;2023-04-24T08:27:26;22.63;;;10.48;;
78610;SDS011;67932;50.474;4.436;2023-04-24T08:29:55;19.17;;;9.98;;
78610;SDS011;67932;50.474;4.436;2023-04-24T08:32:21;19.95;;;9.55;;
78610;SDS011;67932;50.474;4.436;2023-04-24T08:34:47;23.17;;;10.32;;
78610;SDS011;67932;50.474;4.436;2023-04-24T08:37:13;19.58;;;10.48;;
78610;SDS011;67932;50.474;4.436;2023-04-24T08:39:39;18.77;;;9.40;;
78610;SDS011;67932;50.474;4.436;2023-04-24T08:42:05;19.73;;;9.90;;
78610;SDS011;67932;50.474;4.436;2023-04-24T08:44:33;19.80;;;9.60;;
78610;SDS011;67932;50.474;4.436;2023-04-24T08:46:59;18.92;;;10.65;;
78610;SDS011;67932;50.474;4.436;2023-04-24T08:49:27;20.95;;;10.02;;
78610;SDS011;67932;50.474;4.436;2023-04-24T08:51:54;18.27;;;8.52;;
78610;SDS011;67932;50.474;4.436;2023-04-24T08:54:20;16.92;;;8.93;;
78610;SDS011;67932;50.474;4.436;2023-04-24T08:56:47;14.70;;;7.78;;
78610;SDS011;67932;50.474;4.436;2023-04-24T08:59:16;14.55;;;8.30;;
78610;SDS011;67932;50.474;4.436;2023-04-24T09:01:42;16.10;;;8.45;;
78610;SDS011;67932;50.474;4.436;2023-04-24T09:04:10;17.27;;;10.05;;
78610;SDS011;67932;50.474;4.436;2023-04-24T09:06:39;16.20;;;8.02;;
78610;SDS011;67932;50.474;4.436;2023-04-24T09:09:05;14.98;;;7.75;;
78610;SDS011;67932;50.474;4.436;2023-04-24T09:11:32;17.33;;;7.97;;
78610;SDS011;67932;50.474;4.436;2023-04-24T09:13:58;15.02;;;7.93;;
78610;SDS011;67932;50.474;4.436;2023-04-24T09:16:25;14.38;;;6.53;;
78610;SDS011;67932;50.474;4.436;2023-04-24T09:18:51;12.20;;;7.00;;
78610;SDS011;67932;50.474;4.436;2023-04-24T09:21:19;8.63;;;6.10;;
78610;SDS011;67932;50.474;4.436;2023-04-24T09:23:46;13.23;;;6.05;;
78610;SDS011;67932;50.474;4.436;2023-04-24T09:26:12;11.60;;;6.10;;
78610;SDS011;67932;50.474;4.436;2023-04-24T09:28:40;7.28;;;4.90;;
78610;SDS011;67932;50.474;4.436;2023-04-24T09:31:11;9.68;;;5.85;;
78610;SDS011;67932;50.474;4.436;2023-04-24T09:33:38;12.75;;;6.57;;
78610;SDS011;67932;50.474;4.436;2023-04-24T09:36:04;12.95;;;7.15;;
78610;SDS011;67932;50.474;4.436;2023-04-24T09:38:37;10.90;;;6.65;;
78610;SDS011;67932;50.474;4.436;2023-04-24T09:41:07;16.00;;;7.78;;
78610;SDS011;67932;50.474;4.436;2023-04-24T09:43:34;14.77;;;7.90;;
78610;SDS011;67932;50.474;4.436;2023-04-24T09:46:04;12.45;;;7.03;;
78610;SDS011;67932;50.474;4.436;2023-04-24T09:48:31;14.85;;;7.45;;
78610;SDS011;67932;50.474;4.436;2023-04-24T09:50:57;13.38;;;6.85;;
78610;SDS011;67932;50.474;4.436;2023-04-24T09:53:24;11.13;;;6.60;;
78610;SDS011;67932;50.474;4.436;2023-04-24T09:55:51;11.02;;;5.97;;
78610;SDS011;67932;50.474;4.436;2023-04-24T09:58:18;10.18;;;5.55;;
78610;SDS011;67932;50.474;4.436;2023-04-24T10:00:44;11.48;;;5.80;;
78610;SDS011;67932;50.474;4.436;2023-04-24T10:03:11;9.75;;;5.38;;
78610;SDS011;67932;50.474;4.436;2023-04-24T10:05:37;10.95;;;6.22;;
78610;SDS011;67932;50.474;4.436;2023-04-24T10:08:04;11.30;;;5.43;;
78610;SDS011;67932;50.474;4.436;2023-04-24T10:10:31;10.88;;;6.00;;
78610;SDS011;67932;50.474;4.436;2023-04-24T10:12:57;9.90;;;5.68;;
78610;SDS011;67932;50.474;4.436;2023-04-24T10:15:24;11.15;;;5.68;;
78610;SDS011;67932;50.474;4.436;2023-04-24T10:17:51;12.05;;;5.75;;
78610;SDS011;67932;50.474;4.436;2023-04-24T10:20:28;13.55;;;7.00;;
78610;SDS011;67932;50.474;4.436;2023-04-24T10:22:58;8.68;;;5.80;;
78610;SDS011;67932;50.474;4.436;2023-04-24T10:25:25;14.30;;;7.60;;
78610;SDS011;67932;50.474;4.436;2023-04-24T10:27:52;14.25;;;7.40;;
78610;SDS011;67932;50.474;4.436;2023-04-24T10:30:22;17.33;;;7.40;;
78610;SDS011;67932;50.474;4.436;2023-04-24T10:32:48;13.95;;;7.30;;
78610;SDS011;67932;50.474;4.436;2023-04-24T10:35:15;17.30;;;8.05;;
78610;SDS011;67932;50.474;4.436;2023-04-24T10:37:54;18.17;;;8.10;;
78610;SDS011;67932;50.474;4.436;2023-04-24T10:40:25;17.60;;;8.75;;
78610;SDS011;67932;50.474;4.436;2023-04-24T10:42:52;18.77;;;9.20;;
78610;SDS011;67932;50.474;4.436;2023-04-24T10:45:19;17.13;;;8.75;;
78610;SDS011;67932;50.474;4.436;2023-04-24T10:52:48;17.40;;;9.63;;
78610;SDS011;67932;50.474;4.436;2023-04-24T10:58:04;19.10;;;8.95;;
78610;SDS011;67932;50.474;4.436;2023-04-24T11:00:31;21.23;;;9.90;;
78610;SDS011;67932;50.474;4.436;2023-04-24T11:02:57;16.92;;;8.60;;
78610;SDS011;67932;50.474;4.436;2023-04-24T11:05:48;20.50;;;9.27;;
78610;SDS011;67932;50.474;4.436;2023-04-24T11:08:15;17.15;;;8.63;;
78610;SDS011;67932;50.474;4.436;2023-04-24T11:10:47;18.52;;;8.68;;
78610;SDS011;67932;50.474;4.436;2023-04-24T11:13:22;16.15;;;8.43;;
78610;SDS011;67932;50.474;4.436;2023-04-24T11:18:37;17.35;;;8.13;;
78610;SDS011;67932;50.474;4.436;2023-04-24T11:21:15;15.40;;;8.88;;
78610;SDS011;67932;50.474;4.436;2023-04-24T11:23:42;15.13;;;8.00;;
78610;SDS011;67932;50.474;4.436;2023-04-24T11:26:18;13.30;;;6.90;;
78610;SDS011;67932;50.474;4.436;2023-04-24T11:28:47;11.23;;;6.28;;
78610;SDS011;67932;50.474;4.436;2023-04-24T11:34:06;9.40;;;5.70;;
78610;SDS011;67932;50.474;4.436;2023-04-24T11:36:32;10.70;;;5.25;;
78610;SDS011;67932;50.474;4.436;2023-04-24T11:38:58;9.05;;;5.28;;
78610;SDS011;67932;50.474;4.436;2023-04-24T11:41:25;8.80;;;5.35;;
78610;SDS011;67932;50.474;4.436;2023-04-24T11:43:51;11.98;;;5.65;;
78610;SDS011;67932;50.474;4.436;2023-04-24T11:46:18;7.50;;;4.78;;
78610;SDS011;67932;50.474;4.436;2023-04-24T11:48:46;9.82;;;5.85;;
78610;SDS011;67932;50.474;4.436;2023-04-24T11:51:13;9.15;;;5.50;;
78610;SDS011;67932;50.474;4.436;2023-04-24T11:53:39;12.40;;;5.40;;
78610;SDS011;67932;50.474;4.436;2023-04-24T11:56:05;10.73;;;6.05;;
78610;SDS011;67932;50.474;4.436;2023-04-24T11:58:35;12.63;;;5.97;;
78610;SDS011;67932;50.474;4.436;2023-04-24T12:01:01;12.02;;;6.03;;
78610;SDS011;67932;50.474;4.436;2023-04-24T12:03:28;11.43;;;5.78;;
78610;SDS011;67932;50.474;4.436;2023-04-24T12:06:27;12.40;;;6.75;;
78610;SDS011;67932;50.474;4.436;2023-04-24T12:11:32;11.20;;;6.47;;
78610;SDS011;67932;50.474;4.436;2023-04-24T12:14:08;11.50;;;6.32;;
78610;SDS011;67932;50.474;4.436;2023-04-24T12:16:35;9.80;;;6.68;;
78610;SDS011;67932;50.474;4.436;2023-04-24T12:19:01;10.95;;;6.82;;
78610;SDS011;67932;50.474;4.436;2023-04-24T12:21:27;10.95;;;6.35;;
78610;SDS011;67932;50.474;4.436;2023-04-24T12:23:56;12.68;;;7.18;;
78610;SDS011;67932;50.474;4.436;2023-04-24T12:26:23;12.40;;;7.07;;
78610;SDS011;67932;50.474;4.436;2023-04-24T12:28:50;11.43;;;6.65;;
78610;SDS011;67932;50.474;4.436;2023-04-24T12:31:16;12.60;;;7.03;;
78610;SDS011;67932;50.474;4.436;2023-04-24T12:33:42;16.55;;;7.22;;
78610;SDS011;67932;50.474;4.436;2023-04-24T12:36:12;12.55;;;7.35;;
78610;SDS011;67932;50.474;4.436;2023-04-24T12:38:39;13.27;;;7.35;;
78610;SDS011;67932;50.474;4.436;2023-04-24T12:41:06;12.38;;;7.25;;
78610;SDS011;67932;50.474;4.436;2023-04-24T12:43:36;13.52;;;7.30;;
78610;SDS011;67932;50.474;4.436;2023-04-24T12:46:02;15.73;;;7.75;;
78610;SDS011;67932;50.474;4.436;2023-04-24T12:48:29;18.27;;;8.90;;
78610;SDS011;67932;50.474;4.436;2023-04-24T12:50:58;14.13;;;7.93;;
78610;SDS011;67932;50.474;4.436;2023-04-24T12:53:28;16.48;;;8.73;;
78610;SDS011;67932;50.474;4.436;2023-04-24T12:55:55;18.77;;;9.80;;
78610;SDS011;67932;50.474;4.436;2023-04-24T12:58:21;14.98;;;7.97;;
78610;SDS011;67932;50.474;4.436;2023-04-24T13:00:48;18.17;;;8.68;;
78610;SDS011;67932;50.474;4.436;2023-04-24T13:03:14;24.50;;;9.95;;
78610;SDS011;67932;50.474;4.436;2023-04-24T13:05:41;25.27;;;10.95;;
78610;SDS011;67932;50.474;4.436;2023-04-24T13:08:07;26.08;;;11.68;;
78610;SDS011;67932;50.474;4.436;2023-04-24T13:10:33;29.42;;;12.93;;
78610;SDS011;67932;50.474;4.436;2023-04-24T13:12:59;29.50;;;13.05;;
78610;SDS011;67932;50.474;4.436;2023-04-24T13:15:26;25.33;;;11.55;;
78610;SDS011;67932;50.474;4.436;2023-04-24T13:17:52;26.02;;;11.95;;
78610;SDS011;67932;50.474;4.436;2023-04-24T13:20:18;27.27;;;12.45;;
78610;SDS011;67932;50.474;4.436;2023-04-24T13:22:44;25.15;;;11.35;;
78610;SDS011;67932;50.474;4.436;2023-04-24T13:25:30;28.92;;;11.98;;
78610;SDS011;67932;50.474;4.436;2023-04-24T13:27:56;28.10;;;11.02;;
78610;SDS011;67932;50.474;4.436;2023-04-24T13:30:23;34.97;;;16.48;;
78610;SDS011;67932;50.474;4.436;2023-04-24T13:32:50;21.67;;;9.93;;
78610;SDS011;67932;50.474;4.436;2023-04-24T13:35:16;20.63;;;10.00;;
78610;SDS011;67932;50.474;4.436;2023-04-24T13:37:42;22.60;;;10.93;;
78610;SDS011;67932;50.474;4.436;2023-04-24T13:40:08;23.77;;;11.63;;
78610;SDS011;67932;50.474;4.436;2023-04-24T13:42:34;22.38;;;11.45;;
78610;SDS011;67932;50.474;4.436;2023-04-24T13:45:00;22.10;;;10.68;;
78610;SDS011;67932;50.474;4.436;2023-04-24T13:47:26;21.15;;;9.77;;
78610;SDS011;67932;50.474;4.436;2023-04-24T13:49:52;21.92;;;10.52;;
78610;SDS011;67932;50.474;4.436;2023-04-24T13:52:19;21.63;;;9.25;;
78610;SDS011;67932;50.474;4.436;2023-04-24T13:54:45;22.10;;;9.05;;
78610;SDS011;67932;50.474;4.436;2023-04-24T13:57:13;25.05;;;9.98;;
78610;SDS011;67932;50.474;4.436;2023-04-24T13:59:40;22.85;;;10.25;;
78610;SDS011;67932;50.474;4.436;2023-04-24T14:02:06;26.50;;;14.70;;
78610;SDS011;67932;50.474;4.436;2023-04-24T14:04:32;19.73;;;9.13;;
78610;SDS011;67932;50.474;4.436;2023-04-24T14:06:58;18.75;;;10.02;;
78610;SDS011;67932;50.474;4.436;2023-04-24T14:09:25;18.48;;;9.63;;
78610;SDS011;67932;50.474;4.436;2023-04-24T14:11:54;16.75;;;8.77;;
78610;SDS011;67932;50.474;4.436;2023-04-24T14:14:21;16.83;;;8.68;;
78610;SDS011;67932;50.474;4.436;2023-04-24T14:16:48;18.30;;;9.27;;
78610;SDS011;67932;50.474;4.436;2023-04-24T14:22:47;14.55;;;7.75;;
78610;SDS011;67932;50.474;4.436;2023-04-24T14:25:13;13.25;;;6.53;;
78610;SDS011;67932;50.474;4.436;2023-04-24T14:27:40;13.82;;;7.18;;
78610;SDS011;67932;50.474;4.436;2023-04-24T14:30:06;15.75;;;7.20;;
78610;SDS011;67932;50.474;4.436;2023-04-24T14:32:33;12.05;;;6.50;;
78610;SDS011;67932;50.474;4.436;2023-04-24T14:34:59;10.35;;;6.00;;
78610;SDS011;67932;50.474;4.436;2023-04-24T14:37:25;12.00;;;7.18;;
78610;SDS011;67932;50.474;4.436;2023-04-24T14:39:52;14.48;;;7.78;;
78610;SDS011;67932;50.474;4.436;2023-04-24T14:42:18;15.95;;;7.95;;
78610;SDS011;67932;50.474;4.436;2023-04-24T14:44:44;15.13;;;8.35;;
78610;SDS011;67932;50.474;4.436;2023-04-24T14:47:10;13.80;;;7.68;;
78610;SDS011;67932;50.474;4.436;2023-04-24T14:49:36;14.18;;;7.47;;